sensor_id;sensor_type;location;lat;lon;timestamp;P1;durP1;ratioP1;P2;durP2;ratioP2
33160;SDS011;19522;45.656;11.302;2022-12-31T00:00:33;36.85;;;24.83;;
33160;SDS011;19522;45.656;11.302;2022-12-31T00:03:01;33.83;;;22.90;;
33160;SDS011;19522;45.656;11.302;2022-12-31T00:05:29;37.40;;;24.08;;
33160;SDS011;19522;45.656;11.302;2022-12-31T00:07:55;37.15;;;24.33;;
33160;SDS011;19522;45.656;11.302;2022-12-31T00:10:21;37.58;;;24.42;;
33160;SDS011;19522;45.656;11.302;2022-12-31T00:12:47;39.30;;;25.05;;
33160;SDS011;19522;45.656;11.302;2022-12-31T00:15:12;27.30;;;18.00;;
33160;SDS011;19522;45.656;11.302;2022-12-31T00:17:38;21.83;;;15.23;;
33160;SDS011;19522;45.656;11.302;2022-12-31T00:20:04;22.67;;;14.90;;
33160;SDS011;19522;45.656;11.302;2022-12-31T00:22:30;23.25;;;16.13;;
33160;SDS011;19522;45.656;11.302;2022-12-31T00:24:55;24.15;;;17.15;;
33160;SDS011;19522;45.656;11.302;2022-12-31T00:27:21;22.73;;;15.82;;
33160;SDS011;19522;45.656;11.302;2022-12-31T00:29:46;31.42;;;18.85;;
33160;SDS011;19522;45.656;11.302;2022-12-31T00:32:12;26.95;;;18.30;;
33160;SDS011;19522;45.656;11.302;2022-12-31T00:34:38;26.33;;;16.90;;
33160;SDS011;19522;45.656;11.302;2022-12-31T00:37:03;28.08;;;17.77;;
33160;SDS011;19522;45.656;11.302;2022-12-31T00:39:29;29.38;;;18.15;;
33160;SDS011;19522;45.656;11.302;2022-12-31T00:41:54;27.45;;;18.88;;
33160;SDS011;19522;45.656;11.302;2022-12-31T00:44:20;25.70;;;18.40;;
33160;SDS011;19522;45.656;11.302;2022-12-31T00:46:45;29.05;;;18.98;;
33160;SDS011;19522;45.656;11.302;2022-12-31T00:49:11;30.23;;;19.73;;
33160;SDS011;19522;45.656;11.302;2022-12-31T00:51:36;34.30;;;20.58;;
33160;SDS011;19522;45.656;11.302;2022-12-31T00:54:02;27.40;;;19.60;;
33160;SDS011;19522;45.656;11.302;2022-12-31T00:56:28;29.40;;;19.40;;
33160;SDS011;19522;45.656;11.302;2022-12-31T00:58:55;30.70;;;20.08;;
33160;SDS011;19522;45.656;11.302;2022-12-31T01:01:25;31.42;;;20.27;;
33160;SDS011;19522;45.656;11.302;2022-12-31T01:04:14;29.83;;;19.33;;
33160;SDS011;19522;45.656;11.302;2022-12-31T01:06:42;29.05;;;18.52;;
33160;SDS011;19522;45.656;11.302;2022-12-31T01:09:09;25.92;;;18.77;;
33160;SDS011;19522;45.656;11.302;2022-12-31T01:11:36;29.73;;;19.33;;
33160;SDS011;19522;45.656;11.302;2022-12-31T01:16:42;27.85;;;19.35;;
33160;SDS011;19522;45.656;11.302;2022-12-31T01:19:11;27.38;;;17.65;;
33160;SDS011;19522;45.656;11.302;2022-12-31T01:21:39;30.10;;;18.15;;
33160;SDS011;19522;45.656;11.302;2022-12-31T01:24:07;29.23;;;19.10;;
33160;SDS011;19522;45.656;11.302;2022-12-31T01:26:33;22.30;;;17.08;;
33160;SDS011;19522;45.656;11.302;2022-12-31T01:28:59;23.30;;;17.88;;
33160;SDS011;19522;45.656;11.302;2022-12-31T01:31:25;23.77;;;16.27;;
33160;SDS011;19522;45.656;11.302;2022-12-31T01:33:51;25.40;;;16.23;;
33160;SDS011;19522;45.656;11.302;2022-12-31T01:36:18;22.90;;;16.17;;
33160;SDS011;19522;45.656;11.302;2022-12-31T01:38:46;24.30;;;18.20;;
33160;SDS011;19522;45.656;11.302;2022-12-31T01:41:13;22.67;;;16.63;;
33160;SDS011;19522;45.656;11.302;2022-12-31T01:43:50;20.75;;;15.50;;
33160;SDS011;19522;45.656;11.302;2022-12-31T01:49:26;20.58;;;14.30;;
33160;SDS011;19522;45.656;11.302;2022-12-31T01:52:05;17.05;;;12.98;;
33160;SDS011;19522;45.656;11.302;2022-12-31T01:54:36;17.45;;;12.38;;
33160;SDS011;19522;45.656;11.302;2022-12-31T01:57:04;17.85;;;13.25;;
33160;SDS011;19522;45.656;11.302;2022-12-31T01:59:32;20.98;;;12.93;;
33160;SDS011;19522;45.656;11.302;2022-12-31T02:01:58;18.40;;;12.40;;
33160;SDS011;19522;45.656;11.302;2022-12-31T02:04:25;14.85;;;10.63;;
33160;SDS011;19522;45.656;11.302;2022-12-31T02:06:53;17.10;;;10.70;;
33160;SDS011;19522;45.656;11.302;2022-12-31T02:09:22;12.60;;;8.88;;
33160;SDS011;19522;45.656;11.302;2022-12-31T02:11:47;13.80;;;8.88;;
33160;SDS011;19522;45.656;11.302;2022-12-31T02:14:18;13.13;;;8.85;;
33160;SDS011;19522;45.656;11.302;2022-12-31T02:22:39;13.88;;;9.23;;
33160;SDS011;19522;45.656;11.302;2022-12-31T02:25:33;11.85;;;8.77;;
33160;SDS011;19522;45.656;11.302;2022-12-31T02:31:00;11.93;;;8.18;;
33160;SDS011;19522;45.656;11.302;2022-12-31T02:36:30;66.28;;;35.92;;
33160;SDS011;19522;45.656;11.302;2022-12-31T02:39:00;13.63;;;8.85;;
33160;SDS011;19522;45.656;11.302;2022-12-31T02:41:28;18.30;;;10.52;;
33160;SDS011;19522;45.656;11.302;2022-12-31T02:44:31;10.85;;;5.97;;
33160;SDS011;19522;45.656;11.302;2022-12-31T02:55:03;10.90;;;7.68;;
33160;SDS011;19522;45.656;11.302;2022-12-31T03:00:01;12.15;;;7.97;;
33160;SDS011;19522;45.656;11.302;2022-12-31T03:02:47;10.25;;;7.95;;
33160;SDS011;19522;45.656;11.302;2022-12-31T03:05:15;11.63;;;7.93;;
33160;SDS011;19522;45.656;11.302;2022-12-31T03:07:43;11.70;;;8.27;;
33160;SDS011;19522;45.656;11.302;2022-12-31T03:10:10;10.50;;;7.78;;
33160;SDS011;19522;45.656;11.302;2022-12-31T03:12:35;12.95;;;8.30;;
33160;SDS011;19522;45.656;11.302;2022-12-31T03:15:13;11.65;;;8.23;;
33160;SDS011;19522;45.656;11.302;2022-12-31T03:20:38;11.43;;;7.55;;
33160;SDS011;19522;45.656;11.302;2022-12-31T03:23:27;12.57;;;8.25;;
33160;SDS011;19522;45.656;11.302;2022-12-31T03:25:54;11.77;;;8.02;;
33160;SDS011;19522;45.656;11.302;2022-12-31T03:28:22;11.05;;;7.85;;
33160;SDS011;19522;45.656;11.302;2022-12-31T03:30:50;11.68;;;7.65;;
33160;SDS011;19522;45.656;11.302;2022-12-31T03:33:18;10.20;;;7.45;;
33160;SDS011;19522;45.656;11.302;2022-12-31T03:35:45;12.45;;;7.68;;
33160;SDS011;19522;45.656;11.302;2022-12-31T03:38:12;12.50;;;7.60;;
33160;SDS011;19522;45.656;11.302;2022-12-31T03:40:40;8.85;;;6.82;;
33160;SDS011;19522;45.656;11.302;2022-12-31T03:43:08;10.95;;;6.97;;
33160;SDS011;19522;45.656;11.302;2022-12-31T03:45:34;10.80;;;6.30;;
33160;SDS011;19522;45.656;11.302;2022-12-31T03:48:01;8.95;;;6.32;;
33160;SDS011;19522;45.656;11.302;2022-12-31T03:50:27;12.50;;;6.95;;
33160;SDS011;19522;45.656;11.302;2022-12-31T03:52:52;11.13;;;6.30;;
33160;SDS011;19522;45.656;11.302;2022-12-31T03:55:18;10.30;;;6.60;;
33160;SDS011;19522;45.656;11.302;2022-12-31T03:57:44;8.57;;;6.00;;
33160;SDS011;19522;45.656;11.302;2022-12-31T04:00:11;13.80;;;7.00;;
33160;SDS011;19522;45.656;11.302;2022-12-31T04:02:38;9.82;;;5.65;;
33160;SDS011;19522;45.656;11.302;2022-12-31T04:05:04;8.50;;;6.25;;
33160;SDS011;19522;45.656;11.302;2022-12-31T04:07:30;10.85;;;6.68;;
33160;SDS011;19522;45.656;11.302;2022-12-31T04:09:56;9.60;;;6.50;;
33160;SDS011;19522;45.656;11.302;2022-12-31T04:12:22;9.10;;;6.60;;
33160;SDS011;19522;45.656;11.302;2022-12-31T04:14:47;9.90;;;6.40;;
33160;SDS011;19522;45.656;11.302;2022-12-31T04:17:13;11.45;;;6.50;;
33160;SDS011;19522;45.656;11.302;2022-12-31T04:19:38;7.90;;;5.75;;
33160;SDS011;19522;45.656;11.302;2022-12-31T04:22:04;10.52;;;6.15;;
33160;SDS011;19522;45.656;11.302;2022-12-31T04:24:30;9.00;;;5.72;;
33160;SDS011;19522;45.656;11.302;2022-12-31T04:26:55;18.42;;;6.55;;
33160;SDS011;19522;45.656;11.302;2022-12-31T04:29:21;10.60;;;6.10;;
33160;SDS011;19522;45.656;11.302;2022-12-31T04:31:47;8.75;;;5.97;;
33160;SDS011;19522;45.656;11.302;2022-12-31T04:34:12;8.68;;;6.65;;
33160;SDS011;19522;45.656;11.302;2022-12-31T04:36:38;8.35;;;6.03;;
33160;SDS011;19522;45.656;11.302;2022-12-31T04:39:04;8.77;;;6.03;;
33160;SDS011;19522;45.656;11.302;2022-12-31T04:41:29;9.13;;;6.05;;
33160;SDS011;19522;45.656;11.302;2022-12-31T04:43:56;8.63;;;6.22;;
33160;SDS011;19522;45.656;11.302;2022-12-31T04:46:24;9.43;;;6.15;;
33160;SDS011;19522;45.656;11.302;2022-12-31T04:48:54;15.50;;;7.45;;
33160;SDS011;19522;45.656;11.302;2022-12-31T04:51:21;9.98;;;6.05;;
33160;SDS011;19522;45.656;11.302;2022-12-31T04:53:46;11.88;;;5.90;;
33160;SDS011;19522;45.656;11.302;2022-12-31T04:56:12;7.45;;;5.35;;
33160;SDS011;19522;45.656;11.302;2022-12-31T04:58:39;13.73;;;6.25;;
33160;SDS011;19522;45.656;11.302;2022-12-31T05:01:04;8.48;;;5.97;;
33160;SDS011;19522;45.656;11.302;2022-12-31T05:03:30;7.95;;;5.90;;
33160;SDS011;19522;45.656;11.302;2022-12-31T05:06:03;8.68;;;6.22;;
33160;SDS011;19522;45.656;11.302;2022-12-31T05:08:35;12.15;;;6.50;;
33160;SDS011;19522;45.656;11.302;2022-12-31T05:11:01;8.23;;;6.03;;
33160;SDS011;19522;45.656;11.302;2022-12-31T05:13:27;11.18;;;6.30;;
33160;SDS011;19522;45.656;11.302;2022-12-31T05:15:52;8.40;;;6.18;;
33160;SDS011;19522;45.656;11.302;2022-12-31T05:18:19;10.13;;;6.13;;
33160;SDS011;19522;45.656;11.302;2022-12-31T05:20:45;10.52;;;6.50;;
33160;SDS011;19522;45.656;11.302;2022-12-31T05:23:11;9.98;;;6.88;;
33160;SDS011;19522;45.656;11.302;2022-12-31T05:25:37;8.32;;;6.10;;
33160;SDS011;19522;45.656;11.302;2022-12-31T05:28:03;14.05;;;8.30;;
33160;SDS011;19522;45.656;11.302;2022-12-31T05:30:28;11.10;;;7.70;;
33160;SDS011;19522;45.656;11.302;2022-12-31T05:32:54;10.50;;;7.93;;
33160;SDS011;19522;45.656;11.302;2022-12-31T05:35:19;12.52;;;8.25;;
33160;SDS011;19522;45.656;11.302;2022-12-31T05:37:45;11.68;;;7.50;;
33160;SDS011;19522;45.656;11.302;2022-12-31T05:40:10;11.77;;;8.30;;
33160;SDS011;19522;45.656;11.302;2022-12-31T05:42:36;16.10;;;9.18;;
33160;SDS011;19522;45.656;11.302;2022-12-31T05:45:02;15.68;;;8.60;;
33160;SDS011;19522;45.656;11.302;2022-12-31T05:47:28;12.30;;;7.78;;
33160;SDS011;19522;45.656;11.302;2022-12-31T05:49:54;13.02;;;7.78;;
33160;SDS011;19522;45.656;11.302;2022-12-31T05:52:19;9.50;;;6.65;;
33160;SDS011;19522;45.656;11.302;2022-12-31T05:54:45;11.20;;;7.75;;
33160;SDS011;19522;45.656;11.302;2022-12-31T05:57:10;11.88;;;7.40;;
33160;SDS011;19522;45.656;11.302;2022-12-31T05:59:36;10.30;;;6.68;;
33160;SDS011;19522;45.656;11.302;2022-12-31T06:02:02;9.20;;;6.45;;
33160;SDS011;19522;45.656;11.302;2022-12-31T06:04:28;10.13;;;7.00;;
33160;SDS011;19522;45.656;11.302;2022-12-31T06:06:53;10.85;;;6.70;;
33160;SDS011;19522;45.656;11.302;2022-12-31T06:09:19;18.17;;;8.15;;
33160;SDS011;19522;45.656;11.302;2022-12-31T06:11:45;11.45;;;8.05;;
33160;SDS011;19522;45.656;11.302;2022-12-31T06:14:11;14.13;;;10.40;;
33160;SDS011;19522;45.656;11.302;2022-12-31T06:16:38;12.02;;;8.02;;
33160;SDS011;19522;45.656;11.302;2022-12-31T06:19:04;10.02;;;7.50;;
33160;SDS011;19522;45.656;11.302;2022-12-31T06:21:30;8.68;;;6.85;;
33160;SDS011;19522;45.656;11.302;2022-12-31T06:23:55;8.73;;;6.22;;
33160;SDS011;19522;45.656;11.302;2022-12-31T06:26:23;10.48;;;7.20;;
33160;SDS011;19522;45.656;11.302;2022-12-31T06:28:48;9.80;;;7.25;;
33160;SDS011;19522;45.656;11.302;2022-12-31T06:31:14;11.65;;;9.32;;
33160;SDS011;19522;45.656;11.302;2022-12-31T06:33:40;12.07;;;8.70;;
33160;SDS011;19522;45.656;11.302;2022-12-31T06:36:07;10.15;;;7.93;;
33160;SDS011;19522;45.656;11.302;2022-12-31T06:38:36;10.68;;;7.75;;
33160;SDS011;19522;45.656;11.302;2022-12-31T06:41:03;11.13;;;7.50;;
33160;SDS011;19522;45.656;11.302;2022-12-31T06:43:30;9.48;;;6.93;;
33160;SDS011;19522;45.656;11.302;2022-12-31T06:45:59;10.25;;;6.88;;
33160;SDS011;19522;45.656;11.302;2022-12-31T06:48:25;8.60;;;6.75;;
33160;SDS011;19522;45.656;11.302;2022-12-31T06:50:50;11.20;;;6.75;;
33160;SDS011;19522;45.656;11.302;2022-12-31T06:53:16;11.55;;;8.43;;
33160;SDS011;19522;45.656;11.302;2022-12-31T06:55:41;11.70;;;7.20;;
33160;SDS011;19522;45.656;11.302;2022-12-31T06:58:10;9.70;;;7.53;;
33160;SDS011;19522;45.656;11.302;2022-12-31T07:00:37;11.90;;;6.75;;
33160;SDS011;19522;45.656;11.302;2022-12-31T07:03:33;9.93;;;7.20;;
33160;SDS011;19522;45.656;11.302;2022-12-31T07:06:18;12.73;;;7.90;;
33160;SDS011;19522;45.656;11.302;2022-12-31T07:11:40;16.13;;;10.00;;
33160;SDS011;19522;45.656;11.302;2022-12-31T07:21:48;20.60;;;18.50;;
33160;SDS011;19522;45.656;11.302;2022-12-31T07:24:15;15.02;;;12.70;;
33160;SDS011;19522;45.656;11.302;2022-12-31T07:35:30;16.83;;;8.88;;
33160;SDS011;19522;45.656;11.302;2022-12-31T07:38:31;12.75;;;9.30;;
33160;SDS011;19522;45.656;11.302;2022-12-31T07:41:22;11.30;;;8.50;;
33160;SDS011;19522;45.656;11.302;2022-12-31T07:47:25;16.98;;;11.45;;
33160;SDS011;19522;45.656;11.302;2022-12-31T07:49:52;15.63;;;11.15;;
33160;SDS011;19522;45.656;11.302;2022-12-31T07:52:19;12.93;;;9.50;;
33160;SDS011;19522;45.656;11.302;2022-12-31T07:54:45;13.60;;;9.90;;
33160;SDS011;19522;45.656;11.302;2022-12-31T07:57:11;13.85;;;9.85;;
33160;SDS011;19522;45.656;11.302;2022-12-31T08:00:00;14.63;;;9.88;;
33160;SDS011;19522;45.656;11.302;2022-12-31T08:02:38;16.80;;;11.60;;
33160;SDS011;19522;45.656;11.302;2022-12-31T08:12:45;14.93;;;11.00;;
33160;SDS011;19522;45.656;11.302;2022-12-31T08:15:15;15.00;;;10.98;;
33160;SDS011;19522;45.656;11.302;2022-12-31T08:17:42;15.45;;;10.80;;
33160;SDS011;19522;45.656;11.302;2022-12-31T08:20:11;13.25;;;9.98;;
33160;SDS011;19522;45.656;11.302;2022-12-31T08:22:59;12.38;;;9.48;;
33160;SDS011;19522;45.656;11.302;2022-12-31T08:31:19;13.55;;;10.63;;
33160;SDS011;19522;45.656;11.302;2022-12-31T08:37:26;13.63;;;10.40;;
33160;SDS011;19522;45.656;11.302;2022-12-31T08:40:26;16.65;;;9.75;;
33160;SDS011;19522;45.656;11.302;2022-12-31T08:42:51;15.75;;;11.93;;
33160;SDS011;19522;45.656;11.302;2022-12-31T08:48:04;20.65;;;15.90;;
33160;SDS011;19522;45.656;11.302;2022-12-31T08:50:57;22.30;;;16.30;;
33160;SDS011;19522;45.656;11.302;2022-12-31T08:53:22;20.83;;;16.88;;
33160;SDS011;19522;45.656;11.302;2022-12-31T08:55:49;20.80;;;15.35;;
33160;SDS011;19522;45.656;11.302;2022-12-31T09:01:04;20.13;;;14.37;;
33160;SDS011;19522;45.656;11.302;2022-12-31T09:06:25;17.50;;;12.95;;
33160;SDS011;19522;45.656;11.302;2022-12-31T09:09:02;14.48;;;11.50;;
33160;SDS011;19522;45.656;11.302;2022-12-31T09:19:48;18.98;;;12.55;;
33160;SDS011;19522;45.656;11.302;2022-12-31T09:22:13;15.65;;;12.23;;
33160;SDS011;19522;45.656;11.302;2022-12-31T09:24:39;15.27;;;11.60;;
33160;SDS011;19522;45.656;11.302;2022-12-31T09:27:10;17.45;;;13.15;;
33160;SDS011;19522;45.656;11.302;2022-12-31T09:32:16;18.10;;;14.40;;
33160;SDS011;19522;45.656;11.302;2022-12-31T09:34:55;20.02;;;13.68;;
33160;SDS011;19522;45.656;11.302;2022-12-31T09:56:35;31.07;;;21.50;;
33160;SDS011;19522;45.656;11.302;2022-12-31T09:59:15;27.63;;;21.13;;
33160;SDS011;19522;45.656;11.302;2022-12-31T10:01:56;29.48;;;21.58;;
33160;SDS011;19522;45.656;11.302;2022-12-31T10:10:17;35.10;;;25.70;;
33160;SDS011;19522;45.656;11.302;2022-12-31T10:32:16;37.30;;;28.13;;
33160;SDS011;19522;45.656;11.302;2022-12-31T10:40:24;35.50;;;29.08;;
33160;SDS011;19522;45.656;11.302;2022-12-31T10:42:56;36.60;;;28.00;;
33160;SDS011;19522;45.656;11.302;2022-12-31T10:45:50;38.35;;;28.92;;
33160;SDS011;19522;45.656;11.302;2022-12-31T10:51:32;36.83;;;26.92;;
33160;SDS011;19522;45.656;11.302;2022-12-31T10:57:05;31.20;;;25.77;;
33160;SDS011;19522;45.656;11.302;2022-12-31T11:02:45;39.47;;;30.35;;
33160;SDS011;19522;45.656;11.302;2022-12-31T11:11:15;38.05;;;29.58;;
33160;SDS011;19522;45.656;11.302;2022-12-31T11:22:19;28.33;;;24.20;;
33160;SDS011;19522;45.656;11.302;2022-12-31T11:30:30;30.38;;;25.08;;
33160;SDS011;19522;45.656;11.302;2022-12-31T11:38:28;35.03;;;28.92;;
33160;SDS011;19522;45.656;11.302;2022-12-31T11:40:59;33.97;;;28.13;;
33160;SDS011;19522;45.656;11.302;2022-12-31T11:49:27;26.60;;;20.95;;
33160;SDS011;19522;45.656;11.302;2022-12-31T11:52:04;26.53;;;20.57;;
33160;SDS011;19522;45.656;11.302;2022-12-31T11:57:34;25.35;;;20.75;;
33160;SDS011;19522;45.656;11.302;2022-12-31T12:00:05;24.00;;;18.67;;
33160;SDS011;19522;45.656;11.302;2022-12-31T12:02:33;18.63;;;15.55;;
33160;SDS011;19522;45.656;11.302;2022-12-31T12:05:02;16.27;;;12.27;;
33160;SDS011;19522;45.656;11.302;2022-12-31T12:07:30;15.60;;;13.52;;
33160;SDS011;19522;45.656;11.302;2022-12-31T12:09:57;20.95;;;15.68;;
33160;SDS011;19522;45.656;11.302;2022-12-31T12:12:25;19.10;;;15.25;;
33160;SDS011;19522;45.656;11.302;2022-12-31T12:15:06;17.65;;;14.32;;
33160;SDS011;19522;45.656;11.302;2022-12-31T12:17:33;18.60;;;13.40;;
33160;SDS011;19522;45.656;11.302;2022-12-31T12:20:04;18.02;;;13.63;;
33160;SDS011;19522;45.656;11.302;2022-12-31T12:22:47;15.80;;;12.48;;
33160;SDS011;19522;45.656;11.302;2022-12-31T12:27:46;19.10;;;13.70;;
33160;SDS011;19522;45.656;11.302;2022-12-31T12:32:59;16.88;;;13.73;;
33160;SDS011;19522;45.656;11.302;2022-12-31T12:35:32;16.70;;;12.90;;
33160;SDS011;19522;45.656;11.302;2022-12-31T12:38:21;17.08;;;12.63;;
33160;SDS011;19522;45.656;11.302;2022-12-31T12:43:20;15.85;;;12.27;;
33160;SDS011;19522;45.656;11.302;2022-12-31T12:45:48;17.77;;;13.73;;
33160;SDS011;19522;45.656;11.302;2022-12-31T12:48:20;17.35;;;13.65;;
33160;SDS011;19522;45.656;11.302;2022-12-31T12:53:50;16.80;;;11.77;;
33160;SDS011;19522;45.656;11.302;2022-12-31T12:56:47;16.00;;;12.00;;
33160;SDS011;19522;45.656;11.302;2022-12-31T13:05:19;11.88;;;8.95;;
33160;SDS011;19522;45.656;11.302;2022-12-31T13:24:28;24.92;;;19.52;;
33160;SDS011;19522;45.656;11.302;2022-12-31T13:30:25;20.63;;;16.55;;
33160;SDS011;19522;45.656;11.302;2022-12-31T13:33:04;24.63;;;18.40;;
33160;SDS011;19522;45.656;11.302;2022-12-31T13:35:50;29.45;;;21.98;;
33160;SDS011;19522;45.656;11.302;2022-12-31T13:38:22;33.60;;;21.17;;
33160;SDS011;19522;45.656;11.302;2022-12-31T13:43:47;26.10;;;20.55;;
33160;SDS011;19522;45.656;11.302;2022-12-31T13:48:57;29.65;;;22.95;;
33160;SDS011;19522;45.656;11.302;2022-12-31T13:51:29;32.30;;;24.50;;
33160;SDS011;19522;45.656;11.302;2022-12-31T13:54:09;33.03;;;23.38;;
33160;SDS011;19522;45.656;11.302;2022-12-31T13:56:46;30.63;;;22.80;;
33160;SDS011;19522;45.656;11.302;2022-12-31T13:59:20;29.73;;;23.00;;
33160;SDS011;19522;45.656;11.302;2022-12-31T14:01:53;29.38;;;21.48;;
33160;SDS011;19522;45.656;11.302;2022-12-31T14:04:29;26.60;;;21.17;;
33160;SDS011;19522;45.656;11.302;2022-12-31T14:07:06;25.08;;;19.98;;
33160;SDS011;19522;45.656;11.302;2022-12-31T14:09:52;28.13;;;20.98;;
33160;SDS011;19522;45.656;11.302;2022-12-31T14:12:20;25.80;;;19.92;;
33160;SDS011;19522;45.656;11.302;2022-12-31T14:22:46;29.33;;;21.73;;
33160;SDS011;19522;45.656;11.302;2022-12-31T14:25:25;33.80;;;23.90;;
33160;SDS011;19522;45.656;11.302;2022-12-31T14:27:58;30.08;;;23.67;;
33160;SDS011;19522;45.656;11.302;2022-12-31T14:30:27;30.63;;;22.92;;
33160;SDS011;19522;45.656;11.302;2022-12-31T14:36:01;27.73;;;21.92;;
33160;SDS011;19522;45.656;11.302;2022-12-31T14:41:33;29.80;;;21.42;;
33160;SDS011;19522;45.656;11.302;2022-12-31T14:44:07;26.60;;;21.08;;
33160;SDS011;19522;45.656;11.302;2022-12-31T14:46:58;27.88;;;20.40;;
33160;SDS011;19522;45.656;11.302;2022-12-31T14:57:35;28.65;;;21.65;;
33160;SDS011;19522;45.656;11.302;2022-12-31T15:02:59;31.52;;;23.55;;
33160;SDS011;19522;45.656;11.302;2022-12-31T15:05:33;105.93;;;60.97;;
33160;SDS011;19522;45.656;11.302;2022-12-31T15:08:05;40.47;;;29.58;;
33160;SDS011;19522;45.656;11.302;2022-12-31T15:13:39;37.90;;;28.08;;
33160;SDS011;19522;45.656;11.302;2022-12-31T15:19:20;34.78;;;26.10;;
33160;SDS011;19522;45.656;11.302;2022-12-31T15:25:38;33.30;;;25.92;;
33160;SDS011;19522;45.656;11.302;2022-12-31T15:28:25;35.58;;;27.92;;
33160;SDS011;19522;45.656;11.302;2022-12-31T15:36:19;38.38;;;28.33;;
33160;SDS011;19522;45.656;11.302;2022-12-31T15:38:49;38.90;;;29.65;;
33160;SDS011;19522;45.656;11.302;2022-12-31T15:46:31;37.42;;;29.23;;
33160;SDS011;19522;45.656;11.302;2022-12-31T15:49:09;40.53;;;30.80;;
33160;SDS011;19522;45.656;11.302;2022-12-31T15:51:41;36.00;;;28.60;;
33160;SDS011;19522;45.656;11.302;2022-12-31T15:54:16;35.28;;;26.02;;
33160;SDS011;19522;45.656;11.302;2022-12-31T15:56:47;30.85;;;23.85;;
33160;SDS011;19522;45.656;11.302;2022-12-31T15:59:15;35.10;;;24.42;;
33160;SDS011;19522;45.656;11.302;2022-12-31T16:01:42;35.72;;;25.02;;
33160;SDS011;19522;45.656;11.302;2022-12-31T16:04:19;33.10;;;26.00;;
33160;SDS011;19522;45.656;11.302;2022-12-31T16:06:47;34.25;;;28.02;;
33160;SDS011;19522;45.656;11.302;2022-12-31T16:09:18;39.58;;;27.63;;
33160;SDS011;19522;45.656;11.302;2022-12-31T16:11:55;34.55;;;25.50;;
33160;SDS011;19522;45.656;11.302;2022-12-31T16:14:23;31.98;;;25.15;;
33160;SDS011;19522;45.656;11.302;2022-12-31T16:16:56;28.85;;;24.30;;
33160;SDS011;19522;45.656;11.302;2022-12-31T16:19:30;39.55;;;29.55;;
33160;SDS011;19522;45.656;11.302;2022-12-31T16:22:17;40.05;;;29.08;;
33160;SDS011;19522;45.656;11.302;2022-12-31T16:24:55;53.10;;;34.33;;
33160;SDS011;19522;45.656;11.302;2022-12-31T16:27:23;58.40;;;41.63;;
33160;SDS011;19522;45.656;11.302;2022-12-31T16:29:56;54.53;;;36.15;;
33160;SDS011;19522;45.656;11.302;2022-12-31T16:32:26;43.22;;;30.60;;
33160;SDS011;19522;45.656;11.302;2022-12-31T16:35:02;34.15;;;25.92;;
33160;SDS011;19522;45.656;11.302;2022-12-31T16:37:44;37.90;;;29.00;;
33160;SDS011;19522;45.656;11.302;2022-12-31T16:40:17;39.60;;;29.25;;
33160;SDS011;19522;45.656;11.302;2022-12-31T16:42:46;40.47;;;30.40;;
33160;SDS011;19522;45.656;11.302;2022-12-31T16:45:23;43.03;;;33.67;;
33160;SDS011;19522;45.656;11.302;2022-12-31T16:50:31;46.95;;;34.22;;
33160;SDS011;19522;45.656;11.302;2022-12-31T16:52:58;29.60;;;23.55;;
33160;SDS011;19522;45.656;11.302;2022-12-31T16:55:28;35.30;;;26.05;;
33160;SDS011;19522;45.656;11.302;2022-12-31T16:58:00;39.50;;;27.42;;
33160;SDS011;19522;45.656;11.302;2022-12-31T17:00:47;39.10;;;28.30;;
33160;SDS011;19522;45.656;11.302;2022-12-31T17:08:27;32.67;;;24.75;;
33160;SDS011;19522;45.656;11.302;2022-12-31T17:11:03;34.45;;;24.50;;
33160;SDS011;19522;45.656;11.302;2022-12-31T17:13:33;35.92;;;25.48;;
33160;SDS011;19522;45.656;11.302;2022-12-31T17:15:59;40.83;;;27.35;;
33160;SDS011;19522;45.656;11.302;2022-12-31T17:18:27;36.88;;;27.73;;
33160;SDS011;19522;45.656;11.302;2022-12-31T17:21:03;42.40;;;28.80;;
33160;SDS011;19522;45.656;11.302;2022-12-31T17:23:32;47.28;;;33.17;;
33160;SDS011;19522;45.656;11.302;2022-12-31T17:26:05;50.47;;;35.80;;
33160;SDS011;19522;45.656;11.302;2022-12-31T17:28:37;58.60;;;38.17;;
33160;SDS011;19522;45.656;11.302;2022-12-31T17:36:37;52.03;;;38.03;;
33160;SDS011;19522;45.656;11.302;2022-12-31T17:39:16;51.20;;;38.08;;
33160;SDS011;19522;45.656;11.302;2022-12-31T17:41:47;56.65;;;39.75;;
33160;SDS011;19522;45.656;11.302;2022-12-31T17:44:16;50.50;;;37.80;;
33160;SDS011;19522;45.656;11.302;2022-12-31T17:46:44;49.17;;;37.33;;
33160;SDS011;19522;45.656;11.302;2022-12-31T17:49:11;47.70;;;36.65;;
33160;SDS011;19522;45.656;11.302;2022-12-31T17:51:40;47.50;;;37.05;;
33160;SDS011;19522;45.656;11.302;2022-12-31T17:54:15;47.33;;;36.40;;
33160;SDS011;19522;45.656;11.302;2022-12-31T17:56:41;53.10;;;40.67;;
33160;SDS011;19522;45.656;11.302;2022-12-31T17:59:09;54.05;;;40.30;;
33160;SDS011;19522;45.656;11.302;2022-12-31T18:01:46;57.78;;;43.05;;
33160;SDS011;19522;45.656;11.302;2022-12-31T18:04:13;60.00;;;44.33;;
33160;SDS011;19522;45.656;11.302;2022-12-31T18:06:39;69.13;;;48.10;;
33160;SDS011;19522;45.656;11.302;2022-12-31T18:09:05;74.25;;;52.17;;
33160;SDS011;19522;45.656;11.302;2022-12-31T18:11:31;90.55;;;61.03;;
33160;SDS011;19522;45.656;11.302;2022-12-31T18:13:57;81.30;;;56.60;;
33160;SDS011;19522;45.656;11.302;2022-12-31T18:16:22;69.90;;;50.00;;
33160;SDS011;19522;45.656;11.302;2022-12-31T18:18:48;66.40;;;47.58;;
33160;SDS011;19522;45.656;11.302;2022-12-31T18:21:17;59.72;;;44.72;;
33160;SDS011;19522;45.656;11.302;2022-12-31T18:23:48;61.50;;;43.05;;
33160;SDS011;19522;45.656;11.302;2022-12-31T18:26:15;62.30;;;43.42;;
33160;SDS011;19522;45.656;11.302;2022-12-31T18:28:45;50.53;;;38.05;;
33160;SDS011;19522;45.656;11.302;2022-12-31T18:31:21;53.25;;;40.10;;
33160;SDS011;19522;45.656;11.302;2022-12-31T18:33:56;51.88;;;38.53;;
33160;SDS011;19522;45.656;11.302;2022-12-31T18:36:22;57.05;;;40.55;;
33160;SDS011;19522;45.656;11.302;2022-12-31T18:38:49;55.33;;;39.45;;
33160;SDS011;19522;45.656;11.302;2022-12-31T18:41:22;57.45;;;40.17;;
33160;SDS011;19522;45.656;11.302;2022-12-31T18:43:53;53.67;;;39.38;;
33160;SDS011;19522;45.656;11.302;2022-12-31T18:46:19;53.95;;;39.13;;
33160;SDS011;19522;45.656;11.302;2022-12-31T18:48:47;54.03;;;39.42;;
33160;SDS011;19522;45.656;11.302;2022-12-31T18:51:13;53.85;;;40.20;;
33160;SDS011;19522;45.656;11.302;2022-12-31T18:53:43;55.67;;;40.58;;
33160;SDS011;19522;45.656;11.302;2022-12-31T18:56:10;58.05;;;41.40;;
33160;SDS011;19522;45.656;11.302;2022-12-31T18:58:37;85.63;;;56.10;;
33160;SDS011;19522;45.656;11.302;2022-12-31T19:01:02;70.65;;;46.90;;
33160;SDS011;19522;45.656;11.302;2022-12-31T19:03:28;65.93;;;46.13;;
33160;SDS011;19522;45.656;11.302;2022-12-31T19:05:54;63.38;;;45.70;;
33160;SDS011;19522;45.656;11.302;2022-12-31T19:08:21;57.55;;;44.33;;
33160;SDS011;19522;45.656;11.302;2022-12-31T19:10:48;65.68;;;47.20;;
33160;SDS011;19522;45.656;11.302;2022-12-31T19:13:15;64.03;;;45.42;;
33160;SDS011;19522;45.656;11.302;2022-12-31T19:18:09;58.05;;;42.22;;